Time;durP1;ratioP1;P1;durP2;ratioP2;P2;SDS_P1;SDS_P2;PMS_P1;PMS_P2;Temp;Humidity;BMP_temperature;BMP_pressure;BME280_temperature;BME280_humidity;BME280_pressure;Samples;Min_cycle;Max_cycle;Signal;HPM_P1;HPM_P2
2022/10/02 00:02:15;;;;;;;11.63;2.00;;;;;;;11.84;90.35;100920.50;6241371;28;20219;-70
2022/10/02 00:05:41;;;;;;;3.27;2.03;;;;;;;11.89;89.72;100925.50;6245921;28;20224;-70
2022/10/02 00:09:04;;;;;;;2.60;2.40;;;;;;;11.88;89.85;100919.22;6249924;28;20514;-70
2022/10/02 00:12:29;;;;;;;3.47;1.80;;;;;;;11.89;90.25;100920.91;6239162;28;21020;-70
2022/10/02 00:15:50;;;;;;;2.77;1.73;;;;;;;11.93;89.62;100919.63;6245364;28;20621;-69
2022/10/02 00:19:16;;;;;;;4.90;2.73;;;;;;;11.93;90.56;100925.03;6245704;28;20236;-70
2022/10/02 00:22:47;;;;;;;3.30;1.60;;;;;;;11.95;89.43;100924.91;6248946;28;20617;-70
2022/10/02 00:26:15;;;;;;;2.53;1.83;;;;;;;11.93;89.87;100935.84;6249267;28;20314;-70
2022/10/02 00:29:44;;;;;;;2.50;1.30;;;;;;;11.90;89.55;100927.19;6249477;28;20250;-70
2022/10/02 00:33:20;;;;;;;7.47;2.20;;;;;;;11.84;89.68;100923.22;6243683;28;20236;-70
2022/10/02 00:36:52;;;;;;;6.57;1.70;;;;;;;11.83;90.09;100926.91;6252829;28;20228;-71
2022/10/02 00:40:37;;;;;;;9.47;1.77;;;;;;;11.83;89.84;100926.91;6248271;28;20640;-70
2022/10/02 00:44:19;;;;;;;3.73;2.93;;;;;;;11.82;90.42;100930.63;6247195;28;20247;-70
2022/10/02 00:47:51;;;;;;;4.63;1.80;;;;;;;11.86;90.21;100928.47;6249220;28;20227;-70
2022/10/02 00:51:25;;;;;;;1.30;1.20;;;;;;;11.89;90.11;100939.00;6245190;28;23065;-70
2022/10/02 00:55:03;;;;;;;4.43;1.53;;;;;;;11.99;89.76;100921.75;6255812;28;20231;-70
2022/10/02 00:59:06;;;;;;;5.03;2.20;;;;;;;12.03;89.37;100928.59;6249305;28;20326;-70
2022/10/02 01:02:51;;;;;;;6.00;2.07;;;;;;;12.02;88.56;100934.13;6251440;28;21984;-70
2022/10/02 01:06:13;;;;;;;4.17;1.47;;;;;;;12.02;88.33;100934.13;6256961;28;20255;-72
2022/10/02 01:09:34;;;;;;;3.87;1.27;;;;;;;11.96;88.26;100927.47;6252593;28;20227;-69
2022/10/02 01:12:57;;;;;;;1.63;1.20;;;;;;;11.95;88.90;100935.72;6254281;28;20247;-70
2022/10/02 01:16:18;;;;;;;6.60;2.47;;;;;;;11.92;89.50;100946.81;6256717;28;20240;-71
2022/10/02 01:19:41;;;;;;;2.80;1.20;;;;;;;11.90;87.97;100952.34;6254340;28;20228;-70
2022/10/02 01:23:09;;;;;;;7.70;3.30;;;;;;;11.95;88.19;100947.34;6255798;28;20236;-69
2022/10/02 01:26:31;;;;;;;4.17;1.97;;;;;;;12.10;88.17;100992.88;6247913;28;20246;-69
2022/10/02 01:29:56;;;;;;;8.97;1.90;;;;;;;12.21;88.29;101003.53;6251693;28;20668;-70
2022/10/02 01:33:18;;;;;;;2.40;1.73;;;;;;;12.25;88.27;100999.53;6256134;28;20512;-70
2022/10/02 01:36:39;;;;;;;5.93;1.70;;;;;;;12.29;87.85;101007.22;6247799;28;20708;-70
2022/10/02 01:40:05;;;;;;;8.40;2.50;;;;;;;12.30;87.95;101030.56;6253521;28;20232;-70
2022/10/02 01:43:31;;;;;;;6.20;2.03;;;;;;;12.35;88.36;101046.34;6252389;28;20232;-69
2022/10/02 01:46:59;;;;;;;2.27;1.43;;;;;;;12.33;88.82;101034.84;6252740;28;20232;-69
2022/10/02 01:50:31;;;;;;;2.17;1.20;;;;;;;12.29;87.94;101034.25;6246062;28;20236;-70
2022/10/02 01:54:04;;;;;;;3.03;1.63;;;;;;;12.17;89.39;101034.53;6254529;28;20262;-70
2022/10/02 01:57:36;;;;;;;3.53;2.30;;;;;;;12.15;89.55;101031.97;6254250;28;21109;-70
2022/10/02 02:01:07;;;;;;;3.50;1.40;;;;;;;12.10;90.09;101038.81;6248140;28;20698;-70
2022/10/02 02:04:38;;;;;;;2.23;1.43;;;;;;;12.10;89.78;101045.06;6250962;28;20232;-70
2022/10/02 02:08:08;;;;;;;2.13;1.50;;;;;;;12.00;90.43;101038.78;6253161;28;20227;-71
2022/10/02 02:11:29;;;;;;;5.27;2.73;;;;;;;11.96;90.49;101043.63;6237102;28;20219;-70
2022/10/02 02:14:56;;;;;;;2.13;1.70;;;;;;;11.89;91.39;101053.28;6253461;28;20240;-70
2022/10/02 02:18:25;;;;;;;4.13;1.80;;;;;;;11.68;92.38;101035.50;6252409;28;20251;-70
2022/10/02 02:21:53;;;;;;;6.13;1.53;;;;;;;11.71;91.45;101029.81;6253829;28;20515;-70
2022/10/02 02:25:18;;;;;;;1.47;1.37;;;;;;;11.81;91.56;101036.06;6254603;28;20310;-71
2022/10/02 02:28:44;;;;;;;4.17;1.70;;;;;;;11.73;92.39;101035.91;6254873;28;20270;-70
2022/10/02 02:32:10;;;;;;;9.93;2.27;;;;;;;11.73;92.12;101030.53;6253141;28;20232;-71
2022/10/02 02:35:36;;;;;;;2.87;1.60;;;;;;;11.68;91.99;101024.69;6250085;28;20760;-70
2022/10/02 02:39:02;;;;;;;2.97;1.20;;;;;;;11.68;91.58;101022.00;6252595;28;20246;-70
2022/10/02 02:42:35;;;;;;;3.43;1.50;;;;;;;11.68;91.43;101012.03;6254874;28;20337;-70
2022/10/02 02:45:58;;;;;;;1.53;1.20;;;;;;;11.68;91.96;101016.59;6250490;28;20247;-70
2022/10/02 02:49:19;;;;;;;3.77;1.60;;;;;;;11.62;91.43;101023.34;6246542;28;20227;-70
2022/10/02 02:52:47;;;;;;;5.87;1.97;;;;;;;11.64;91.01;101013.28;6251469;28;20342;-70
2022/10/02 02:56:13;;;;;;;1.97;1.07;;;;;;;11.62;90.59;101026.06;6255039;28;20492;-70
2022/10/02 02:59:38;;;;;;;1.83;1.67;;;;;;;11.63;90.15;101008.03;6252410;28;20236;-69
2022/10/02 03:02:59;;;;;;;1.40;1.30;;;;;;;11.72;90.05;101024.25;6256028;28;20859;-70
2022/10/02 03:06:30;;;;;;;3.93;1.70;;;;;;;11.86;89.87;101034.69;6251852;28;20235;-70
2022/10/02 03:10:04;;;;;;;1.53;1.00;;;;;;;11.90;89.03;101030.69;6251609;28;20239;-71
2022/10/02 03:13:36;;;;;;;3.40;1.80;;;;;;;11.90;89.30;101036.09;6249389;28;20987;-70
2022/10/02 03:17:07;;;;;;;2.57;1.17;;;;;;;11.78;89.18;101017.47;6251034;28;20255;-71
2022/10/02 03:20:35;;;;;;;1.67;1.27;;;;;;;11.69;90.90;101007.50;6245009;28;20249;-70
2022/10/02 03:24:01;;;;;;;1.13;0.87;;;;;;;11.78;91.16;101023.72;6250802;28;20226;-71
2022/10/02 03:27:29;;;;;;;1.93;1.80;;;;;;;11.77;91.05;101015.75;6255764;28;20568;-71
2022/10/02 03:30:53;;;;;;;2.00;1.47;;;;;;;11.67;91.12;101012.19;6250374;28;20228;-71
2022/10/02 03:34:14;;;;;;;4.93;2.53;;;;;;;11.63;91.09;101013.41;6249671;28;20227;-70
2022/10/02 03:37:35;;;;;;;3.73;2.10;;;;;;;11.61;91.68;101018.97;6250236;28;20508;-70
2022/10/02 03:40:57;;;;;;;3.67;1.83;;;;;;;11.66;91.21;101027.50;6246686;28;20227;-71
2022/10/02 03:44:20;;;;;;;1.43;1.33;;;;;;;11.72;90.99;101028.81;6252069;28;20229;-71
2022/10/02 03:47:40;;;;;;;1.33;1.33;;;;;;;11.78;90.83;101021.03;6252751;28;20231;-71
2022/10/02 03:51:01;;;;;;;1.93;1.07;;;;;;;11.83;89.88;101017.88;6250495;28;20236;-70
2022/10/02 03:54:23;;;;;;;2.80;1.90;;;;;;;11.87;89.79;101019.28;6248302;28;20941;-70
2022/10/02 03:57:46;;;;;;;4.83;1.20;;;;;;;11.80;89.21;101024.44;6252319;28;20604;-69
2022/10/02 04:01:16;;;;;;;3.03;1.70;;;;;;;11.73;90.19;101025.97;6239138;28;20243;-70
2022/10/02 04:04:45;;;;;;;1.47;1.07;;;;;;;11.63;90.42;101024.22;6247825;28;20228;-70
2022/10/02 04:08:11;;;;;;;9.83;2.67;;;;;;;11.53;90.97;101018.81;6252820;28;20243;-70
2022/10/02 04:11:35;;;;;;;3.73;1.13;;;;;;;11.49;90.94;101017.38;6252212;28;20653;-70
2022/10/02 04:15:00;;;;;;;2.70;1.97;;;;;;;11.51;90.76;101020.81;6251941;28;20247;-69
2022/10/02 04:18:27;;;;;;;3.73;1.37;;;;;;;11.52;90.89;101017.09;6251820;28;20224;-70
2022/10/02 04:21:53;;;;;;;2.10;1.87;;;;;;;11.51;90.62;101026.19;6250747;28;20224;-71
2022/10/02 04:25:18;;;;;;;5.57;1.73;;;;;;;11.49;91.00;101027.31;6248945;28;20299;-70
2022/10/02 04:28:42;;;;;;;3.17;1.77;;;;;;;11.47;90.75;101037.41;6252280;28;20227;-71
2022/10/02 04:32:12;;;;;;;2.10;1.20;;;;;;;11.46;90.71;101031.16;6251052;28;20260;-71
2022/10/02 04:35:44;;;;;;;2.20;1.40;;;;;;;11.42;90.95;101028.84;6249294;28;20231;-70
2022/10/02 04:39:29;;;;;;;7.57;3.20;;;;;;;11.42;91.20;101027.00;6251095;28;20231;-70
2022/10/02 04:43:04;;;;;;;7.13;3.13;;;;;;;11.39;91.30;101027.28;6246677;28;20310;-71
2022/10/02 04:46:45;;;;;;;2.33;1.10;;;;;;;11.40;91.38;101023.59;6241221;28;20782;-71
2022/10/02 04:50:24;;;;;;;4.53;1.63;;;;;;;11.39;91.59;101023.75;6247850;28;20236;-70
2022/10/02 04:54:05;;;;;;;4.07;2.07;;;;;;;11.37;91.43;101031.13;6251662;28;20228;-71
2022/10/02 04:57:47;;;;;;;3.53;1.53;;;;;;;11.43;90.53;101035.97;6253618;28;20224;-72
2022/10/02 05:01:17;;;;;;;1.53;1.10;;;;;;;11.37;90.92;101034.66;6241405;28;20228;-70
2022/10/02 05:04:54;;;;;;;7.83;2.10;;;;;;;11.43;90.62;101027.88;6246425;28;20231;-71
2022/10/02 05:08:49;;;;;;;3.23;1.87;;;;;;;11.42;91.04;101034.25;6248203;28;20232;-71
2022/10/02 05:12:38;;;;;;;4.00;2.07;;;;;;;11.45;91.72;101034.00;6246067;28;20244;-71
2022/10/02 05:16:15;;;;;;;7.63;1.70;;;;;;;11.44;90.78;101033.13;6250687;28;20257;-70
2022/10/02 05:19:51;;;;;;;2.97;1.73;;;;;;;11.43;91.93;101041.38;6249542;28;20314;-71
2022/10/02 05:23:32;;;;;;;1.80;1.43;;;;;;;11.43;91.66;101035.97;6244855;28;20224;-70
2022/10/02 05:27:12;;;;;;;3.13;1.77;;;;;;;11.44;91.60;101034.97;6250413;28;20232;-70
2022/10/02 05:30:45;;;;;;;2.13;1.93;;;;;;;11.45;91.78;101042.09;6248559;28;20243;-70
2022/10/02 05:34:21;;;;;;;3.50;1.90;;;;;;;11.41;92.41;101037.97;6250904;28;20500;-70
2022/10/02 05:37:55;;;;;;;2.70;2.37;;;;;;;11.43;91.89;101035.97;6247686;28;20232;-70
2022/10/02 05:41:22;;;;;;;2.47;2.00;;;;;;;11.41;92.07;101043.34;6258296;28;20227;-70
2022/10/02 05:44:50;;;;;;;7.93;2.40;;;;;;;11.41;92.60;101052.28;6252721;28;20790;-71
2022/10/02 05:48:17;;;;;;;4.03;2.10;;;;;;;11.53;92.42;101053.91;6249288;28;20231;-70
2022/10/02 05:51:44;;;;;;;6.77;2.50;;;;;;;11.54;91.79;101052.91;6231695;28;20240;-70
2022/10/02 05:55:14;;;;;;;6.30;3.83;;;;;;;11.65;91.88;101055.50;6252552;28;20224;-70
2022/10/02 05:58:41;;;;;;;4.30;3.50;;;;;;;11.56;92.24;101068.97;6252856;28;20365;-70
2022/10/02 06:02:08;;;;;;;5.93;2.73;;;;;;;11.60;92.15;101084.75;6238401;28;20232;-70
2022/10/02 06:05:41;;;;;;;4.37;2.40;;;;;;;11.59;91.81;101080.34;6250509;28;20235;-69
2022/10/02 06:09:08;;;;;;;7.07;3.10;;;;;;;11.58;92.77;101084.03;6251898;28;20228;-70
2022/10/02 06:12:35;;;;;;;8.57;2.53;;;;;;;11.64;92.77;101080.78;6248271;28;20642;-70
2022/10/02 06:16:04;;;;;;;3.43;2.23;;;;;;;11.68;92.34;101084.13;6251179;28;20790;-70
2022/10/02 06:19:30;;;;;;;3.60;2.00;;;;;;;11.65;91.18;101066.31;6254116;28;20227;-69
2022/10/02 06:22:59;;;;;;;4.70;2.50;;;;;;;11.67;91.62;101075.16;6247240;28;20232;-69
2022/10/02 06:26:27;;;;;;;5.03;3.20;;;;;;;11.72;90.81;101069.34;6243135;28;21361;-69
2022/10/02 06:29:54;;;;;;;6.47;1.73;;;;;;;11.74;89.82;101078.16;6243759;28;20231;-69
2022/10/02 06:33:21;;;;;;;5.00;1.53;;;;;;;11.78;89.65;101090.38;6243265;28;20232;-70
2022/10/02 06:37:13;;;;;;;2.03;1.57;;;;;;;11.79;88.44;101094.78;6250429;28;20247;-70
2022/10/02 06:40:46;;;;;;;5.10;2.43;;;;;;;11.83;87.52;101082.69;6252857;28;20228;-69
2022/10/02 06:44:22;;;;;;;1.13;0.93;;;;;;;11.88;87.94;101093.97;6249786;28;20212;-72
2022/10/02 06:47:59;;;;;;;3.27;1.50;;;;;;;11.98;86.40;101101.09;6255017;28;20225;-69
2022/10/02 06:51:24;;;;;;;1.53;1.27;;;;;;;12.07;86.43;101114.75;6250134;28;20318;-70
2022/10/02 06:54:59;;;;;;;2.00;0.90;;;;;;;12.06;86.88;101102.25;6253858;28;20226;-69
2022/10/02 06:58:47;;;;;;;3.93;1.87;;;;;;;11.96;86.30;101108.47;6233182;28;20250;-70
2022/10/02 07:02:27;;;;;;;1.40;0.80;;;;;;;12.06;86.14;101115.75;6230507;28;20244;-70
2022/10/02 07:06:10;;;;;;;3.57;1.37;;;;;;;12.17;85.49;101127.28;6249705;28;20518;-70
2022/10/02 07:09:52;;;;;;;3.53;1.80;;;;;;;12.22;85.52;101127.72;6236505;28;20228;-70
2022/10/02 07:13:25;;;;;;;4.00;1.63;;;;;;;12.35;85.83;101131.00;6239167;28;20617;-70
2022/10/02 07:17:00;;;;;;;2.53;1.20;;;;;;;12.41;85.42;101138.53;6240018;28;20617;-71
2022/10/02 07:20:33;;;;;;;1.17;1.13;;;;;;;12.50;84.55;101137.69;6233777;28;20240;-70
2022/10/02 07:24:00;;;;;;;1.43;1.10;;;;;;;12.75;85.11;101147.94;6235676;28;20232;-70
2022/10/02 07:27:26;;;;;;;2.60;1.13;;;;;;;13.13;83.53;101157.03;6240403;28;20246;-70
2022/10/02 07:30:56;;;;;;;0.90;0.90;;;;;;;13.25;83.46;101163.97;6242895;28;20231;-68
2022/10/02 07:34:31;;;;;;;3.03;1.20;;;;;;;13.10;84.36;101169.00;6253334;28;20226;-69
2022/10/02 07:38:05;;;;;;;7.47;1.67;;;;;;;12.87;85.49;101174.84;6254595;28;20323;-69
2022/10/02 07:41:41;;;;;;;2.30;1.10;;;;;;;12.52;86.89;101172.69;6247890;28;20788;-69
2022/10/02 07:45:26;;;;;;;1.37;1.10;;;;;;;12.23;87.78;101166.41;6251314;28;20946;-69
2022/10/02 07:49:02;;;;;;;2.00;0.97;;;;;;;12.14;89.83;101154.56;6252493;28;20232;-69
2022/10/02 07:52:35;;;;;;;0.87;0.87;;;;;;;12.13;89.70;101163.69;6257761;28;20584;-69
2022/10/02 07:55:56;;;;;;;4.27;1.23;;;;;;;12.10;90.06;101177.47;6249881;28;20231;-70
2022/10/02 07:59:18;;;;;;;3.30;1.53;;;;;;;12.24;90.46;101179.81;6238212;28;20236;-70
2022/10/02 08:02:47;;;;;;;2.33;2.13;;;;;;;12.36;89.70;101188.63;6238851;28;20513;-69
2022/10/02 08:06:08;;;;;;;1.37;1.20;;;;;;;12.36;90.41;101185.94;6242086;28;20236;-70
2022/10/02 08:09:36;;;;;;;1.50;1.00;;;;;;;12.43;90.39;101193.31;6238020;28;20517;-70
2022/10/02 08:13:03;;;;;;;1.33;1.20;;;;;;;12.36;89.98;101199.44;6242487;28;20762;-71
2022/10/02 08:16:31;;;;;;;2.57;1.73;;;;;;;12.41;90.31;101195.31;6235870;28;20251;-69
2022/10/02 08:19:53;;;;;;;1.93;1.50;;;;;;;12.98;89.33;101186.38;6236569;28;20302;-69
2022/10/02 08:23:21;;;;;;;20.27;14.53;;;;;;;13.87;86.63;101198.56;6239057;28;20231;-67
2022/10/02 08:26:48;;;;;;;17.50;15.50;;;;;;;14.47;85.00;101205.25;6244223;28;20757;-67
2022/10/02 08:30:13;;;;;;;11.23;10.23;;;;;;;14.81;80.42;101198.16;6235606;28;20243;-72
2022/10/02 08:33:34;;;;;;;2.97;1.80;;;;;;;14.48;80.94;101206.97;6254657;28;20227;-71
2022/10/02 08:37:25;;;;;;;2.60;1.00;;;;;;;14.28;82.16;101234.22;6254627;28;20248;-69
2022/10/02 08:41:10;;;;;;;4.80;1.37;;;;;;;14.00;84.28;101253.28;6252262;28;20615;-71
2022/10/02 08:45:14;;;;;;;1.00;1.00;;;;;;;13.61;85.94;101234.47;6241413;28;20255;-71
2022/10/02 08:49:12;;;;;;;1.70;0.87;;;;;;;13.32;87.96;101249.91;6223391;28;20236;-71
2022/10/02 08:53:10;;;;;;;2.87;1.27;;;;;;;13.17;88.47;101239.66;6236349;28;20239;-71
2022/10/02 08:56:45;;;;;;;2.60;1.13;;;;;;;13.01;89.92;101240.22;6230802;28;20559;-71
2022/10/02 09:00:20;;;;;;;2.20;1.40;;;;;;;13.12;89.95;101239.25;6219111;28;20691;-71
2022/10/02 09:04:16;;;;;;;1.80;1.03;;;;;;;13.10;89.96;101225.84;6237399;28;20240;-70
2022/10/02 09:08:18;;;;;;;3.90;3.47;;;;;;;12.96;91.45;101223.56;6238800;28;20228;-71
2022/10/02 09:12:09;;;;;;;2.03;1.20;;;;;;;13.12;91.04;101237.38;6221343;28;20231;-71
2022/10/02 09:15:44;;;;;;;3.87;1.40;;;;;;;13.56;89.20;101241.31;6252294;28;20232;-72
2022/10/02 09:19:23;;;;;;;1.80;1.03;;;;;;;13.32;89.70;101243.66;6263732;28;20223;-71
2022/10/02 09:23:23;;;;;;;1.97;1.87;;;;;;;13.28;90.40;101245.78;6240696;28;20224;-71
2022/10/02 09:27:01;;;;;;;4.97;1.97;;;;;;;13.31;90.10;101250.91;6226487;28;20312;-73
2022/10/02 09:30:42;;;;;;;2.07;1.17;;;;;;;13.33;90.43;101246.19;6232305;28;20251;-72
2022/10/02 09:34:30;;;;;;;2.30;1.70;;;;;;;13.27;91.24;101251.34;6214735;28;20235;-72
2022/10/02 09:38:23;;;;;;;4.33;2.93;;;;;;;13.37;90.43;101250.31;6257557;28;20236;-72
2022/10/02 09:42:19;;;;;;;4.00;1.90;;;;;;;13.68;89.25;101245.56;6260438;28;20943;-71
2022/10/02 09:46:18;;;;;;;4.90;1.40;;;;;;;13.98;88.65;101258.00;6257835;28;20228;-71
2022/10/02 09:50:21;;;;;;;3.50;1.97;;;;;;;14.26;86.64;101244.34;6255951;28;20559;-70
2022/10/02 09:54:13;;;;;;;2.47;1.00;;;;;;;14.95;83.52;101249.19;6240170;28;20575;-71
2022/10/02 09:57:59;;;;;;;2.37;1.00;;;;;;;15.06;80.78;101244.34;6238196;28;20236;-71
2022/10/02 10:01:54;;;;;;;2.70;1.17;;;;;;;15.10;81.14;101242.19;6242640;28;20232;-71
2022/10/02 10:05:53;;;;;;;1.37;0.87;;;;;;;16.60;76.43;101238.91;6244347;28;20491;-71
2022/10/02 10:09:42;;;;;;;2.17;1.37;;;;;;;19.89;65.26;101235.06;6239513;28;20252;-71
2022/10/02 10:13:24;;;;;;;2.90;1.65;;;;;;;18.97;65.09;101238.94;6245524;28;20228;-70
2022/10/02 10:17:10;;;;;;;1.58;0.70;;;;;;;23.33;50.97;101235.66;6246286;28;20224;-72
2022/10/02 10:21:07;;;;;;;4.55;1.48;;;;;;;25.22;47.01;101239.81;6234761;28;20232;-70
2022/10/02 10:25:00;;;;;;;0.63;0.60;;;;;;;26.42;43.35;101247.66;6236654;28;20310;-71
2022/10/02 10:28:54;;;;;;;0.68;0.45;;;;;;;27.69;38.38;101251.00;6242574;28;20231;-70
2022/10/02 10:32:48;;;;;;;2.63;0.80;;;;;;;28.43;37.29;101248.34;6251074;28;20216;-72
2022/10/02 10:40:37;;;;;;;1.92;1.08;;;;;;;26.76;40.59;101253.41;6248103;28;20605;-72
2022/10/02 10:44:18;;;;;;;1.48;1.00;;;;;;;25.56;42.53;101236.59;6252041;28;21669;-70
2022/10/02 10:48:16;;;;;;;5.65;1.20;;;;;;;25.03;43.57;101249.91;6253050;28;20224;-69
2022/10/02 10:51:44;;;;;;;3.05;1.08;;;;;;;23.97;44.88;101252.38;6228683;28;20304;-72
2022/10/02 10:55:17;;;;;;;4.30;2.03;;;;;;;26.04;42.20;101269.94;6248844;28;20305;-71
2022/10/02 10:58:55;;;;;;;2.22;1.02;;;;;;;27.03;39.31;101253.06;6260014;28;20228;-71
2022/10/02 11:03:01;;;;;;;2.72;1.08;;;;;;;26.86;41.07;101255.66;6253024;28;20223;-72
2022/10/02 11:06:49;;;;;;;1.15;1.05;;;;;;;27.74;37.70;101256.66;6240543;28;20605;-72
2022/10/02 11:10:29;;;;;;;1.75;0.80;;;;;;;23.12;46.53;101264.16;6250056;28;20264;-74
2022/10/02 11:14:07;;;;;;;3.28;0.98;;;;;;;24.91;44.44;101251.66;6252610;28;20236;-71
2022/10/02 11:17:47;;;;;;;3.10;1.10;;;;;;;21.68;52.09;101274.34;6253851;28;20239;-72
2022/10/02 11:21:33;;;;;;;1.00;0.90;;;;;;;19.46;57.95;101276.88;6248835;28;20231;-76
2022/10/02 11:25:26;;;;;;;0.95;0.90;;;;;;;19.89;58.20;101268.75;6260090;28;20224;-72
2022/10/02 11:29:04;;;;;;;3.70;1.20;;;;;;;21.40;53.19;101271.53;6256011;28;20228;-72
2022/10/02 11:32:50;;;;;;;2.30;1.55;;;;;;;20.10;56.77;101280.84;6250668;28;20231;-72
2022/10/02 11:36:40;;;;;;;3.65;1.13;;;;;;;19.50;58.89;101281.78;6255080;28;20232;-72
2022/10/02 11:40:34;;;;;;;2.17;1.52;;;;;;;21.92;50.73;101275.84;6257885;28;20623;-72
2022/10/02 11:44:14;;;;;;;3.53;1.02;;;;;;;23.16;47.30;101283.84;6253985;28;20227;-73
2022/10/02 11:48:07;;;;;;;5.28;2.05;;;;;;;23.48;47.09;101263.81;6251994;28;20531;-72
2022/10/02 11:51:54;;;;;;;4.45;1.50;;;;;;;24.15;45.28;101269.13;6236520;28;20632;-72
2022/10/02 11:55:35;;;;;;;3.92;1.70;;;;;;;23.49;45.78;101269.13;6248266;28;20327;-71
2022/10/02 11:59:17;;;;;;;2.25;1.70;;;;;;;25.50;42.40;101289.97;6247154;28;20236;-72
2022/10/02 12:02:44;;;;;;;2.35;0.80;;;;;;;26.04;39.63;101290.16;6252392;28;20239;-73
2022/10/02 12:06:14;;;;;;;3.67;1.13;;;;;;;27.73;36.83;101267.97;6248576;28;20259;-73
2022/10/02 12:09:46;;;;;;;3.45;1.55;;;;;;;25.26;40.90;101283.28;6250502;28;20556;-72
2022/10/02 12:13:28;;;;;;;4.38;1.95;;;;;;;26.28;39.52;101295.91;6251052;28;20223;-73
2022/10/02 12:17:07;;;;;;;3.17;1.10;;;;;;;27.01;38.69;101294.00;6247861;28;20228;-74
2022/10/02 12:28:26;;;;;;;3.60;0.90;;;;;;;25.11;41.86;101298.47;6246142;28;20314;-73
2022/10/02 12:31:55;;;;;;;3.42;1.67;;;;;;;27.11;36.87;101297.03;6265192;28;20235;-72
2022/10/02 12:35:30;;;;;;;1.25;0.80;;;;;;;29.04;34.38;101303.22;6247847;28;20234;-72
2022/10/02 12:39:02;;;;;;;1.92;1.45;;;;;;;26.96;38.36;101310.44;6248975;28;20614;-72
2022/10/02 12:42:43;;;;;;;1.75;1.05;;;;;;;26.93;36.80;101315.38;6256598;28;20231;-74
2022/10/02 12:46:26;;;;;;;2.80;1.48;;;;;;;25.34;39.96;101310.66;6250623;28;20231;-74
2022/10/02 12:50:01;;;;;;;5.45;2.03;;;;;;;27.19;37.00;101307.78;6249546;28;20227;-74
2022/10/02 12:53:57;;;;;;;2.50;1.13;;;;;;;26.03;39.77;101312.50;6259988;28;20235;-74
2022/10/02 13:01:41;;;;;;;2.33;1.30;;;;;;;24.97;40.66;101316.19;6254955;28;20223;-76
2022/10/02 13:05:24;;;;;;;2.78;1.52;;;;;;;24.43;42.27;101309.13;6247844;28;20251;-71
2022/10/02 13:09:04;;;;;;;2.05;1.55;;;;;;;23.50;44.51;101325.88;6247329;28;20278;-73
2022/10/02 13:12:41;;;;;;;4.18;1.30;;;;;;;22.26;47.02;101331.63;6258571;28;20235;-73
2022/10/02 13:16:11;;;;;;;1.48;1.10;;;;;;;20.26;51.98;101341.78;6252532;28;20228;-73
2022/10/02 13:19:40;;;;;;;5.90;2.03;;;;;;;20.29;53.76;101335.97;6256481;28;20524;-72
2022/10/02 13:23:15;;;;;;;8.23;2.40;;;;;;;19.87;55.38;101333.78;6240468;28;20227;-74
2022/10/02 13:26:50;;;;;;;9.40;2.80;;;;;;;20.35;54.37;101337.94;6237970;28;20231;-72
2022/10/02 13:30:16;;;;;;;3.05;1.60;;;;;;;22.13;48.36;101339.75;6251160;28;20318;-73
2022/10/02 13:33:57;;;;;;;7.07;2.63;;;;;;;24.90;42.24;101330.00;6251476;28;20239;-73
2022/10/02 13:37:32;;;;;;;3.42;1.20;;;;;;;25.09;40.25;101331.84;6247456;28;20629;-72
2022/10/02 13:41:03;;;;;;;5.63;1.70;;;;;;;23.96;42.17;101341.59;6241601;28;20235;-72
2022/10/02 13:44:36;;;;;;;3.42;2.35;;;;;;;24.27;40.19;101330.78;6244984;28;20231;-76
2022/10/02 13:48:09;;;;;;;2.28;1.25;;;;;;;26.93;35.78;101342.22;6235440;28;22000;-73
2022/10/02 13:51:43;;;;;;;15.57;2.67;;;;;;;26.34;36.37;101331.78;6241387;28;20304;-73
2022/10/02 13:55:18;;;;;;;0.88;0.82;;;;;;;25.14;37.35;101350.47;6243891;28;20231;-74
2022/10/02 13:59:10;;;;;;;3.28;1.65;;;;;;;21.86;44.09;101359.81;6244907;28;20485;-74
2022/10/02 14:03:03;;;;;;;3.05;1.38;;;;;;;23.63;39.97;101353.44;6256657;28;20232;-73
2022/10/02 14:06:29;;;;;;;2.30;1.23;;;;;;;23.48;40.54;101363.78;6229366;28;20233;-74
2022/10/02 14:09:59;;;;;;;7.18;1.67;;;;;;;22.69;40.49;101370.84;6249013;28;20281;-73
2022/10/02 14:13:37;;;;;;;4.10;1.35;;;;;;;20.84;45.44;101378.47;6261739;28;20219;-73
2022/10/02 14:17:05;;;;;;;1.73;1.63;;;;;;;20.84;45.36;101373.81;6251163;28;20295;-73
2022/10/02 14:20:39;;;;;;;1.88;1.00;;;;;;;21.95;43.38;101371.53;6250409;28;20227;-72
2022/10/02 14:24:59;;;;;;;1.63;1.52;;;;;;;20.37;46.37;101382.41;6253651;28;20259;-73
2022/10/02 14:28:34;;;;;;;3.00;1.65;;;;;;;22.00;43.65;101382.78;6247121;28;20224;-74
2022/10/02 14:32:15;;;;;;;2.22;1.17;;;;;;;22.38;43.63;101383.28;6245674;28;20280;-75
2022/10/02 14:35:50;;;;;;;2.75;1.20;;;;;;;22.23;44.17;101388.88;6244236;28;20261;-73
2022/10/02 14:39:24;;;;;;;5.68;2.65;;;;;;;22.05;44.93;101389.34;6253886;28;20660;-73
2022/10/02 14:43:04;;;;;;;6.78;1.80;;;;;;;21.13;45.87;101392.16;6253819;28;20232;-73
2022/10/02 14:46:48;;;;;;;1.35;0.90;;;;;;;20.52;47.68;101393.41;6241614;28;20232;-73
2022/10/02 14:50:36;;;;;;;4.07;1.30;;;;;;;20.91;47.38;101388.47;6235635;28;20228;-74
2022/10/02 14:54:17;;;;;;;3.67;2.22;;;;;;;20.36;49.16;101390.84;6235120;28;20235;-74
2022/10/02 14:58:02;;;;;;;11.05;3.67;;;;;;;20.23;49.68;101386.00;6257395;28;20808;-71
2022/10/02 15:01:25;;;;;;;8.25;3.67;;;;;;;20.18;50.41;101398.50;6239168;28;20743;-70
2022/10/02 15:04:58;;;;;;;4.82;1.23;;;;;;;19.61;52.08;101389.94;6249183;28;20223;-72
2022/10/02 15:08:25;;;;;;;23.33;13.55;;;;;;;19.76;52.15;101399.88;6255440;28;20223;-72
2022/10/02 15:11:57;;;;;;;14.82;13.43;;;;;;;19.81;53.33;101402.09;6254642;28;20231;-74
2022/10/02 15:15:23;;;;;;;111.72;89.20;;;;;;;20.17;51.07;101408.59;6251568;28;20802;-74
2022/10/02 15:18:54;;;;;;;7.63;4.50;;;;;;;19.82;52.18;101406.50;6249284;28;20239;-76
2022/10/02 15:22:19;;;;;;;6.13;2.42;;;;;;;19.07;53.38;101419.06;6253515;28;20854;-72
2022/10/02 15:26:08;;;;;;;5.07;1.42;;;;;;;18.70;53.13;101427.94;6239299;28;20227;-73
2022/10/02 15:29:46;;;;;;;2.72;1.75;;;;;;;18.48;54.60;101436.03;6235982;28;20350;-75
2022/10/02 15:33:25;;;;;;;3.15;1.75;;;;;;;18.50;54.82;101445.75;6225829;28;20231;-71
2022/10/02 15:37:03;;;;;;;5.40;2.53;;;;;;;18.08;56.30;101425.97;6219361;28;20228;-73
2022/10/02 15:40:33;;;;;;;3.75;1.42;;;;;;;17.58;58.16;101436.16;6215133;28;20239;-69
2022/10/02 15:44:05;;;;;;;6.22;1.92;;;;;;;17.40;58.35;101448.00;6217080;28;20231;-73
2022/10/02 15:47:44;;;;;;;5.25;2.20;;;;;;;17.18;58.83;101464.13;6226445;28;20640;-76
2022/10/02 15:51:15;;;;;;;3.58;2.38;;;;;;;16.93;60.66;101462.31;6216359;28;20602;-69
2022/10/02 15:54:52;;;;;;;4.20;1.95;;;;;;;17.09;60.80;101462.38;6227074;28;20330;-69
2022/10/02 15:58:28;;;;;;;5.38;2.88;;;;;;;16.99;62.18;101469.81;6228350;28;20219;-69
2022/10/02 16:01:59;;;;;;;4.07;1.80;;;;;;;16.89;62.15;101469.09;6241196;28;20794;-72
2022/10/02 16:05:38;;;;;;;4.45;1.35;;;;;;;16.99;62.08;101475.25;6244629;28;20231;-72
2022/10/02 16:09:25;;;;;;;10.68;3.05;;;;;;;16.94;62.61;101477.66;6241348;28;20228;-73
2022/10/02 16:13:14;;;;;;;3.83;2.67;;;;;;;16.74;63.23;101483.31;6239908;28;20223;-72
2022/10/02 16:17:06;;;;;;;3.75;2.35;;;;;;;16.86;62.85;101493.91;6225157;28;20248;-73
2022/10/02 16:20:45;;;;;;;5.07;1.65;;;;;;;16.72;63.61;101498.97;6239055;28;20251;-74
2022/10/02 16:24:39;;;;;;;3.30;1.57;;;;;;;16.47;63.54;101490.75;6252531;28;20224;-74
2022/10/02 16:28:14;;;;;;;2.43;1.70;;;;;;;16.50;64.92;101499.47;6241366;28;20617;-74
2022/10/02 16:32:03;;;;;;;3.85;1.45;;;;;;;16.32;64.98;101514.97;6242903;28;20219;-74
2022/10/02 16:36:01;;;;;;;4.23;1.27;;;;;;;16.10;65.24;101520.03;6253041;28;20373;-72
2022/10/02 16:39:41;;;;;;;10.10;2.63;;;;;;;16.16;66.14;101525.72;6253537;28;20228;-73
2022/10/02 16:43:45;;;;;;;6.00;2.07;;;;;;;16.05;66.08;101544.97;6244894;28;20236;-73
2022/10/02 16:47:13;;;;;;;2.45;2.05;;;;;;;15.80;66.92;101549.31;6240405;28;21561;-73
2022/10/02 16:50:47;;;;;;;9.13;2.20;;;;;;;15.70;67.65;101548.53;6237787;28;20231;-74
2022/10/02 16:54:21;;;;;;;5.00;2.08;;;;;;;15.67;68.14;101556.97;6241659;28;20263;-73
2022/10/02 16:58:04;;;;;;;10.25;3.22;;;;;;;15.53;68.58;101562.94;6237811;28;20232;-74